sensor_id;sensor_type;location;lat;lon;timestamp;P1;durP1;ratioP1;P2;durP2;ratioP2
1296;SDS011;641;48.492;9.184;2022-12-18T00:00:41;40.00;;;19.47;;
1296;SDS011;641;48.492;9.184;2022-12-18T00:03:07;34.58;;;15.18;;
1296;SDS011;641;48.492;9.184;2022-12-18T00:05:33;30.75;;;14.27;;
1296;SDS011;641;48.492;9.184;2022-12-18T00:07:59;30.50;;;15.33;;
1296;SDS011;641;48.492;9.184;2022-12-18T00:10:24;34.97;;;15.60;;
1296;SDS011;641;48.492;9.184;2022-12-18T00:12:50;41.40;;;18.17;;
1296;SDS011;641;48.492;9.184;2022-12-18T00:15:15;30.33;;;15.23;;
1296;SDS011;641;48.492;9.184;2022-12-18T00:17:41;39.77;;;15.50;;
1296;SDS011;641;48.492;9.184;2022-12-18T00:20:07;32.53;;;15.70;;
1296;SDS011;641;48.492;9.184;2022-12-18T00:22:33;31.95;;;15.90;;
1296;SDS011;641;48.492;9.184;2022-12-18T00:24:58;33.47;;;16.73;;
1296;SDS011;641;48.492;9.184;2022-12-18T00:27:24;33.80;;;15.30;;
1296;SDS011;641;48.492;9.184;2022-12-18T00:29:50;33.47;;;16.13;;
1296;SDS011;641;48.492;9.184;2022-12-18T00:32:16;36.80;;;17.43;;
1296;SDS011;641;48.492;9.184;2022-12-18T00:34:41;28.17;;;13.73;;
1296;SDS011;641;48.492;9.184;2022-12-18T00:37:07;38.90;;;17.83;;
1296;SDS011;641;48.492;9.184;2022-12-18T00:39:32;36.07;;;16.00;;
1296;SDS011;641;48.492;9.184;2022-12-18T00:41:58;26.50;;;12.47;;
1296;SDS011;641;48.492;9.184;2022-12-18T00:44:42;23.83;;;12.43;;
1296;SDS011;641;48.492;9.184;2022-12-18T00:47:08;34.87;;;15.97;;
1296;SDS011;641;48.492;9.184;2022-12-18T00:49:33;27.60;;;13.10;;
1296;SDS011;641;48.492;9.184;2022-12-18T00:51:59;30.97;;;15.40;;
1296;SDS011;641;48.492;9.184;2022-12-18T00:54:24;33.90;;;15.20;;
1296;SDS011;641;48.492;9.184;2022-12-18T00:56:50;32.83;;;14.43;;
1296;SDS011;641;48.492;9.184;2022-12-18T00:59:16;27.50;;;11.47;;
1296;SDS011;641;48.492;9.184;2022-12-18T01:01:42;24.02;;;11.30;;
1296;SDS011;641;48.492;9.184;2022-12-18T01:04:08;27.57;;;11.60;;
1296;SDS011;641;48.492;9.184;2022-12-18T01:06:34;29.50;;;14.90;;
1296;SDS011;641;48.492;9.184;2022-12-18T01:08:59;35.20;;;14.17;;
1296;SDS011;641;48.492;9.184;2022-12-18T01:11:25;22.77;;;12.43;;
1296;SDS011;641;48.492;9.184;2022-12-18T01:13:51;11.27;;;5.33;;
1296;SDS011;641;48.492;9.184;2022-12-18T01:16:18;36.17;;;12.38;;
1296;SDS011;641;48.492;9.184;2022-12-18T01:18:44;21.57;;;12.10;;
1296;SDS011;641;48.492;9.184;2022-12-18T01:21:11;23.80;;;10.53;;
1296;SDS011;641;48.492;9.184;2022-12-18T01:23:39;26.58;;;12.45;;
1296;SDS011;641;48.492;9.184;2022-12-18T01:26:08;39.20;;;14.60;;
1296;SDS011;641;48.492;9.184;2022-12-18T01:28:41;27.58;;;10.65;;
1296;SDS011;641;48.492;9.184;2022-12-18T01:31:12;32.90;;;15.35;;
1296;SDS011;641;48.492;9.184;2022-12-18T01:33:38;24.73;;;11.93;;
1296;SDS011;641;48.492;9.184;2022-12-18T01:36:04;27.47;;;13.97;;
1296;SDS011;641;48.492;9.184;2022-12-18T01:38:29;38.27;;;13.33;;
1296;SDS011;641;48.492;9.184;2022-12-18T01:40:58;26.20;;;12.03;;
1296;SDS011;641;48.492;9.184;2022-12-18T01:43:44;29.15;;;13.60;;
1296;SDS011;641;48.492;9.184;2022-12-18T01:46:16;28.92;;;11.60;;
1296;SDS011;641;48.492;9.184;2022-12-18T01:48:45;37.53;;;13.07;;
1296;SDS011;641;48.492;9.184;2022-12-18T01:51:13;28.17;;;15.52;;
1296;SDS011;641;48.492;9.184;2022-12-18T01:53:39;29.37;;;13.87;;
1296;SDS011;641;48.492;9.184;2022-12-18T01:56:07;30.50;;;10.68;;
1296;SDS011;641;48.492;9.184;2022-12-18T01:58:46;31.65;;;14.10;;
1296;SDS011;641;48.492;9.184;2022-12-18T02:01:18;26.10;;;12.88;;
1296;SDS011;641;48.492;9.184;2022-12-18T02:03:47;35.92;;;15.70;;
1296;SDS011;641;48.492;9.184;2022-12-18T02:08:54;24.20;;;12.68;;
1296;SDS011;641;48.492;9.184;2022-12-18T02:14:38;30.60;;;10.93;;
1296;SDS011;641;48.492;9.184;2022-12-18T02:28:28;27.20;;;14.07;;
1296;SDS011;641;48.492;9.184;2022-12-18T02:30:59;35.80;;;16.38;;
1296;SDS011;641;48.492;9.184;2022-12-18T02:33:29;21.15;;;12.98;;
1296;SDS011;641;48.492;9.184;2022-12-18T02:35:57;29.10;;;12.23;;
1296;SDS011;641;48.492;9.184;2022-12-18T02:38:24;35.25;;;13.85;;
1296;SDS011;641;48.492;9.184;2022-12-18T02:40:50;26.53;;;11.97;;
1296;SDS011;641;48.492;9.184;2022-12-18T02:43:18;29.80;;;13.00;;
1296;SDS011;641;48.492;9.184;2022-12-18T02:45:53;29.53;;;13.30;;
1296;SDS011;641;48.492;9.184;2022-12-18T02:48:23;34.95;;;15.07;;
1296;SDS011;641;48.492;9.184;2022-12-18T02:51:17;36.70;;;15.05;;
1296;SDS011;641;48.492;9.184;2022-12-18T02:53:50;29.33;;;12.38;;
1296;SDS011;641;48.492;9.184;2022-12-18T02:56:21;31.17;;;11.48;;
1296;SDS011;641;48.492;9.184;2022-12-18T02:59:45;32.72;;;12.63;;
1296;SDS011;641;48.492;9.184;2022-12-18T03:02:00;29.80;;;12.07;;
1296;SDS011;641;48.492;9.184;2022-12-18T03:05:11;28.42;;;13.52;;
1296;SDS011;641;48.492;9.184;2022-12-18T03:07:38;33.08;;;11.13;;
1296;SDS011;641;48.492;9.184;2022-12-18T03:10:13;40.92;;;14.38;;
1296;SDS011;641;48.492;9.184;2022-12-18T03:12:47;29.83;;;14.75;;
1296;SDS011;641;48.492;9.184;2022-12-18T03:15:25;32.50;;;14.27;;
1296;SDS011;641;48.492;9.184;2022-12-18T03:18:13;37.47;;;17.15;;
1296;SDS011;641;48.492;9.184;2022-12-18T03:20:43;35.78;;;13.30;;
1296;SDS011;641;48.492;9.184;2022-12-18T03:23:13;39.20;;;14.52;;
1296;SDS011;641;48.492;9.184;2022-12-18T03:25:43;31.30;;;13.10;;
1296;SDS011;641;48.492;9.184;2022-12-18T03:28:11;28.10;;;12.20;;
1296;SDS011;641;48.492;9.184;2022-12-18T03:30:40;29.20;;;11.48;;
1296;SDS011;641;48.492;9.184;2022-12-18T03:33:25;31.85;;;13.27;;
1296;SDS011;641;48.492;9.184;2022-12-18T03:35:51;30.13;;;13.88;;
1296;SDS011;641;48.492;9.184;2022-12-18T03:38:17;28.60;;;12.60;;
1296;SDS011;641;48.492;9.184;2022-12-18T03:40:51;21.05;;;9.75;;
1296;SDS011;641;48.492;9.184;2022-12-18T03:43:20;32.83;;;12.90;;
1296;SDS011;641;48.492;9.184;2022-12-18T03:46:05;23.80;;;10.77;;
1296;SDS011;641;48.492;9.184;2022-12-18T03:48:38;31.00;;;13.55;;
1296;SDS011;641;48.492;9.184;2022-12-18T03:54:07;21.20;;;11.65;;
1296;SDS011;641;48.492;9.184;2022-12-18T03:56:36;35.95;;;12.55;;
1296;SDS011;641;48.492;9.184;2022-12-18T03:59:07;35.80;;;13.18;;
1296;SDS011;641;48.492;9.184;2022-12-18T04:01:39;27.83;;;11.35;;
1296;SDS011;641;48.492;9.184;2022-12-18T04:04:07;25.02;;;11.65;;
1296;SDS011;641;48.492;9.184;2022-12-18T04:06:34;36.75;;;14.68;;
1296;SDS011;641;48.492;9.184;2022-12-18T04:09:01;31.23;;;14.45;;
1296;SDS011;641;48.492;9.184;2022-12-18T04:11:28;30.10;;;11.98;;
1296;SDS011;641;48.492;9.184;2022-12-18T04:13:57;35.20;;;14.37;;
1296;SDS011;641;48.492;9.184;2022-12-18T04:16:24;29.77;;;13.60;;
1296;SDS011;641;48.492;9.184;2022-12-18T04:18:53;26.25;;;11.80;;
1296;SDS011;641;48.492;9.184;2022-12-18T04:21:19;22.08;;;11.10;;
1296;SDS011;641;48.492;9.184;2022-12-18T04:23:45;30.25;;;13.18;;
1296;SDS011;641;48.492;9.184;2022-12-18T04:26:11;30.27;;;14.47;;
1296;SDS011;641;48.492;9.184;2022-12-18T04:28:37;34.93;;;13.70;;
1296;SDS011;641;48.492;9.184;2022-12-18T04:31:02;32.17;;;13.23;;
1296;SDS011;641;48.492;9.184;2022-12-18T04:33:28;27.93;;;11.07;;
1296;SDS011;641;48.492;9.184;2022-12-18T04:35:54;29.93;;;13.00;;
1296;SDS011;641;48.492;9.184;2022-12-18T04:38:19;23.60;;;10.63;;
1296;SDS011;641;48.492;9.184;2022-12-18T04:40:45;31.00;;;12.47;;
1296;SDS011;641;48.492;9.184;2022-12-18T04:43:10;35.57;;;12.60;;
1296;SDS011;641;48.492;9.184;2022-12-18T04:45:36;22.53;;;10.40;;
1296;SDS011;641;48.492;9.184;2022-12-18T04:48:02;30.60;;;9.90;;
1296;SDS011;641;48.492;9.184;2022-12-18T04:50:28;25.83;;;12.55;;
1296;SDS011;641;48.492;9.184;2022-12-18T04:52:54;26.50;;;11.95;;
1296;SDS011;641;48.492;9.184;2022-12-18T04:55:20;25.77;;;10.87;;
1296;SDS011;641;48.492;9.184;2022-12-18T04:57:46;26.47;;;11.97;;
1296;SDS011;641;48.492;9.184;2022-12-18T05:00:12;38.43;;;13.53;;
1296;SDS011;641;48.492;9.184;2022-12-18T05:02:38;32.35;;;15.32;;
1296;SDS011;641;48.492;9.184;2022-12-18T05:05:03;33.57;;;14.67;;
1296;SDS011;641;48.492;9.184;2022-12-18T05:07:29;27.70;;;13.68;;
1296;SDS011;641;48.492;9.184;2022-12-18T05:09:55;31.63;;;12.07;;
1296;SDS011;641;48.492;9.184;2022-12-18T05:12:21;22.80;;;10.50;;
1296;SDS011;641;48.492;9.184;2022-12-18T05:14:48;27.25;;;11.40;;
1296;SDS011;641;48.492;9.184;2022-12-18T05:17:13;25.07;;;13.63;;
1296;SDS011;641;48.492;9.184;2022-12-18T05:19:39;29.67;;;11.30;;
1296;SDS011;641;48.492;9.184;2022-12-18T05:22:04;21.10;;;10.37;;
1296;SDS011;641;48.492;9.184;2022-12-18T05:24:33;27.15;;;12.02;;
1296;SDS011;641;48.492;9.184;2022-12-18T05:26:58;26.60;;;12.67;;
1296;SDS011;641;48.492;9.184;2022-12-18T05:29:24;30.25;;;12.82;;
1296;SDS011;641;48.492;9.184;2022-12-18T05:31:50;26.20;;;11.00;;
1296;SDS011;641;48.492;9.184;2022-12-18T05:34:15;18.30;;;8.97;;
1296;SDS011;641;48.492;9.184;2022-12-18T05:36:41;26.57;;;13.50;;
1296;SDS011;641;48.492;9.184;2022-12-18T05:39:07;24.70;;;11.47;;
1296;SDS011;641;48.492;9.184;2022-12-18T05:41:32;31.87;;;13.87;;
1296;SDS011;641;48.492;9.184;2022-12-18T05:43:58;21.17;;;9.90;;
1296;SDS011;641;48.492;9.184;2022-12-18T05:46:24;24.83;;;9.13;;
1296;SDS011;641;48.492;9.184;2022-12-18T05:48:49;22.97;;;10.70;;
1296;SDS011;641;48.492;9.184;2022-12-18T05:51:16;29.33;;;13.90;;
1296;SDS011;641;48.492;9.184;2022-12-18T05:53:44;26.30;;;12.07;;
1296;SDS011;641;48.492;9.184;2022-12-18T05:56:11;29.63;;;9.97;;
1296;SDS011;641;48.492;9.184;2022-12-18T05:58:38;23.05;;;11.00;;
1296;SDS011;641;48.492;9.184;2022-12-18T06:01:11;21.97;;;10.90;;
1296;SDS011;641;48.492;9.184;2022-12-18T06:03:41;21.75;;;10.25;;
1296;SDS011;641;48.492;9.184;2022-12-18T06:06:14;27.40;;;11.73;;
1296;SDS011;641;48.492;9.184;2022-12-18T06:08:41;27.88;;;12.07;;
1296;SDS011;641;48.492;9.184;2022-12-18T06:11:07;29.47;;;9.57;;
1296;SDS011;641;48.492;9.184;2022-12-18T06:13:32;30.07;;;13.33;;
1296;SDS011;641;48.492;9.184;2022-12-18T06:15:58;19.37;;;9.90;;
1296;SDS011;641;48.492;9.184;2022-12-18T06:18:27;23.05;;;9.70;;
1296;SDS011;641;48.492;9.184;2022-12-18T06:20:56;18.50;;;8.80;;
1296;SDS011;641;48.492;9.184;2022-12-18T06:23:22;21.10;;;8.30;;
1296;SDS011;641;48.492;9.184;2022-12-18T06:25:48;17.87;;;9.53;;
1296;SDS011;641;48.492;9.184;2022-12-18T06:28:13;26.43;;;10.70;;
1296;SDS011;641;48.492;9.184;2022-12-18T06:30:39;37.47;;;14.60;;
1296;SDS011;641;48.492;9.184;2022-12-18T06:33:07;23.33;;;10.88;;
1296;SDS011;641;48.492;9.184;2022-12-18T06:35:33;16.20;;;7.87;;
1296;SDS011;641;48.492;9.184;2022-12-18T06:38:02;25.87;;;10.90;;
1296;SDS011;641;48.492;9.184;2022-12-18T06:40:34;28.20;;;10.30;;
1296;SDS011;641;48.492;9.184;2022-12-18T06:43:01;32.53;;;9.40;;
1296;SDS011;641;48.492;9.184;2022-12-18T06:45:27;21.50;;;8.60;;
1296;SDS011;641;48.492;9.184;2022-12-18T06:47:52;19.73;;;9.90;;
1296;SDS011;641;48.492;9.184;2022-12-18T06:50:18;31.15;;;13.27;;
1296;SDS011;641;48.492;9.184;2022-12-18T06:52:44;28.67;;;12.30;;
1296;SDS011;641;48.492;9.184;2022-12-18T06:55:10;29.60;;;10.97;;
1296;SDS011;641;48.492;9.184;2022-12-18T06:57:36;24.27;;;7.45;;
1296;SDS011;641;48.492;9.184;2022-12-18T07:00:02;23.13;;;10.48;;
1296;SDS011;641;48.492;9.184;2022-12-18T07:02:30;25.92;;;10.68;;
1296;SDS011;641;48.492;9.184;2022-12-18T07:04:55;29.67;;;10.83;;
1296;SDS011;641;48.492;9.184;2022-12-18T07:07:21;24.97;;;9.70;;
1296;SDS011;641;48.492;9.184;2022-12-18T07:09:46;28.67;;;10.90;;
1296;SDS011;641;48.492;9.184;2022-12-18T07:12:14;27.88;;;11.80;;
1296;SDS011;641;48.492;9.184;2022-12-18T07:14:39;28.57;;;10.90;;
1296;SDS011;641;48.492;9.184;2022-12-18T07:17:05;16.70;;;7.53;;
1296;SDS011;641;48.492;9.184;2022-12-18T07:19:30;43.50;;;14.47;;
1296;SDS011;641;48.492;9.184;2022-12-18T07:21:56;26.10;;;11.03;;
1296;SDS011;641;48.492;9.184;2022-12-18T07:24:21;27.33;;;10.60;;
1296;SDS011;641;48.492;9.184;2022-12-18T07:26:47;32.03;;;13.80;;
1296;SDS011;641;48.492;9.184;2022-12-18T07:29:13;30.63;;;12.30;;
1296;SDS011;641;48.492;9.184;2022-12-18T07:31:38;27.97;;;10.50;;
1296;SDS011;641;48.492;9.184;2022-12-18T07:34:04;21.47;;;9.50;;
1296;SDS011;641;48.492;9.184;2022-12-18T07:36:30;26.57;;;12.20;;
1296;SDS011;641;48.492;9.184;2022-12-18T07:38:55;26.93;;;10.67;;
1296;SDS011;641;48.492;9.184;2022-12-18T07:41:21;23.87;;;11.90;;
1296;SDS011;641;48.492;9.184;2022-12-18T07:43:46;28.27;;;12.50;;
1296;SDS011;641;48.492;9.184;2022-12-18T07:46:13;20.77;;;10.38;;
1296;SDS011;641;48.492;9.184;2022-12-18T07:48:40;21.17;;;9.82;;
1296;SDS011;641;48.492;9.184;2022-12-18T07:51:07;21.85;;;10.75;;
1296;SDS011;641;48.492;9.184;2022-12-18T07:53:33;29.33;;;12.35;;
1296;SDS011;641;48.492;9.184;2022-12-18T07:56:01;30.48;;;12.30;;
1296;SDS011;641;48.492;9.184;2022-12-18T07:58:29;30.55;;;10.30;;
1296;SDS011;641;48.492;9.184;2022-12-18T08:01:29;31.00;;;15.02;;
1296;SDS011;641;48.492;9.184;2022-12-18T08:03:48;35.22;;;11.48;;
1296;SDS011;641;48.492;9.184;2022-12-18T08:06:13;20.13;;;10.77;;
1296;SDS011;641;48.492;9.184;2022-12-18T08:08:39;26.23;;;11.67;;
1296;SDS011;641;48.492;9.184;2022-12-18T08:11:06;10.60;;;6.55;;
1296;SDS011;641;48.492;9.184;2022-12-18T08:13:32;25.37;;;11.33;;
1296;SDS011;641;48.492;9.184;2022-12-18T08:18:24;28.77;;;11.38;;
1296;SDS011;641;48.492;9.184;2022-12-18T08:20:50;33.83;;;13.15;;
1296;SDS011;641;48.492;9.184;2022-12-18T08:23:16;27.53;;;11.30;;
1296;SDS011;641;48.492;9.184;2022-12-18T08:25:41;22.80;;;10.37;;
1296;SDS011;641;48.492;9.184;2022-12-18T08:28:07;28.10;;;12.50;;
1296;SDS011;641;48.492;9.184;2022-12-18T08:30:32;24.20;;;10.93;;
1296;SDS011;641;48.492;9.184;2022-12-18T08:32:58;17.90;;;8.53;;
1296;SDS011;641;48.492;9.184;2022-12-18T08:35:24;25.97;;;12.80;;
1296;SDS011;641;48.492;9.184;2022-12-18T08:37:49;15.93;;;7.37;;
1296;SDS011;641;48.492;9.184;2022-12-18T08:40:15;30.07;;;13.90;;
1296;SDS011;641;48.492;9.184;2022-12-18T08:42:41;31.30;;;12.43;;
1296;SDS011;641;48.492;9.184;2022-12-18T08:45:25;19.42;;;10.93;;
1296;SDS011;641;48.492;9.184;2022-12-18T08:47:51;22.33;;;10.90;;
1296;SDS011;641;48.492;9.184;2022-12-18T08:50:16;30.70;;;14.80;;
1296;SDS011;641;48.492;9.184;2022-12-18T08:52:42;31.60;;;14.30;;
1296;SDS011;641;48.492;9.184;2022-12-18T08:55:08;27.93;;;13.07;;
1296;SDS011;641;48.492;9.184;2022-12-18T08:57:35;31.90;;;14.15;;
1296;SDS011;641;48.492;9.184;2022-12-18T09:00:00;38.20;;;12.70;;
1296;SDS011;641;48.492;9.184;2022-12-18T09:02:26;28.40;;;11.70;;
1296;SDS011;641;48.492;9.184;2022-12-18T09:04:51;40.07;;;16.10;;
1296;SDS011;641;48.492;9.184;2022-12-18T09:07:17;33.43;;;13.37;;
1296;SDS011;641;48.492;9.184;2022-12-18T09:09:42;27.07;;;12.67;;
1296;SDS011;641;48.492;9.184;2022-12-18T09:12:08;30.90;;;12.77;;
1296;SDS011;641;48.492;9.184;2022-12-18T09:14:33;30.47;;;14.13;;
1296;SDS011;641;48.492;9.184;2022-12-18T09:16:59;21.80;;;11.20;;
1296;SDS011;641;48.492;9.184;2022-12-18T09:19:25;40.60;;;16.43;;
1296;SDS011;641;48.492;9.184;2022-12-18T09:21:50;14.50;;;7.57;;
1296;SDS011;641;48.492;9.184;2022-12-18T09:24:16;28.47;;;8.97;;
1296;SDS011;641;48.492;9.184;2022-12-18T09:26:41;16.07;;;6.97;;
1296;SDS011;641;48.492;9.184;2022-12-18T09:29:07;31.07;;;15.10;;
1296;SDS011;641;48.492;9.184;2022-12-18T09:31:34;8.90;;;4.22;;
1296;SDS011;641;48.492;9.184;2022-12-18T09:34:00;28.83;;;9.60;;
1296;SDS011;641;48.492;9.184;2022-12-18T09:36:26;27.67;;;14.27;;
1296;SDS011;641;48.492;9.184;2022-12-18T09:38:51;8.60;;;4.83;;
1296;SDS011;641;48.492;9.184;2022-12-18T09:49:38;22.80;;;12.27;;
1296;SDS011;641;48.492;9.184;2022-12-18T09:54:39;47.95;;;14.23;;
1296;SDS011;641;48.492;9.184;2022-12-18T09:57:09;28.15;;;14.50;;
1296;SDS011;641;48.492;9.184;2022-12-18T09:59:40;33.05;;;14.77;;
1296;SDS011;641;48.492;9.184;2022-12-18T10:02:21;22.30;;;11.80;;
1296;SDS011;641;48.492;9.184;2022-12-18T10:05:09;23.58;;;13.13;;
1296;SDS011;641;48.492;9.184;2022-12-18T10:07:43;42.67;;;17.10;;
1296;SDS011;641;48.492;9.184;2022-12-18T10:10:23;123.30;;;41.42;;
1296;SDS011;641;48.492;9.184;2022-12-18T10:15:27;32.28;;;14.07;;
1296;SDS011;641;48.492;9.184;2022-12-18T10:20:52;29.80;;;14.13;;
1296;SDS011;641;48.492;9.184;2022-12-18T10:23:43;36.03;;;17.30;;
1296;SDS011;641;48.492;9.184;2022-12-18T10:26:31;23.65;;;11.13;;
1296;SDS011;641;48.492;9.184;2022-12-18T10:28:57;37.78;;;18.60;;
1296;SDS011;641;48.492;9.184;2022-12-18T10:31:24;31.20;;;12.90;;
1296;SDS011;641;48.492;9.184;2022-12-18T10:33:50;48.07;;;22.10;;
1296;SDS011;641;48.492;9.184;2022-12-18T10:36:18;39.08;;;17.08;;
1296;SDS011;641;48.492;9.184;2022-12-18T10:38:44;34.92;;;16.83;;
1296;SDS011;641;48.492;9.184;2022-12-18T10:46:41;19.55;;;5.68;;
1296;SDS011;641;48.492;9.184;2022-12-18T10:49:17;10.53;;;5.70;;
1296;SDS011;641;48.492;9.184;2022-12-18T10:51:44;32.28;;;13.32;;
1296;SDS011;641;48.492;9.184;2022-12-18T10:56:48;41.33;;;17.23;;
1296;SDS011;641;48.492;9.184;2022-12-18T10:59:15;24.17;;;11.70;;
1296;SDS011;641;48.492;9.184;2022-12-18T11:04:16;103.55;;;39.75;;
1296;SDS011;641;48.492;9.184;2022-12-18T11:06:57;35.13;;;14.13;;
1296;SDS011;641;48.492;9.184;2022-12-18T11:09:28;57.63;;;23.23;;
1296;SDS011;641;48.492;9.184;2022-12-18T11:11:58;45.95;;;22.63;;
1296;SDS011;641;48.492;9.184;2022-12-18T11:14:33;52.88;;;23.33;;
1296;SDS011;641;48.492;9.184;2022-12-18T11:17:17;47.75;;;21.35;;
1296;SDS011;641;48.492;9.184;2022-12-18T11:19:44;46.47;;;19.60;;
1296;SDS011;641;48.492;9.184;2022-12-18T11:27:35;45.50;;;20.90;;
1296;SDS011;641;48.492;9.184;2022-12-18T11:32:59;48.45;;;19.77;;
1296;SDS011;641;48.492;9.184;2022-12-18T11:35:44;43.13;;;20.20;;
1296;SDS011;641;48.492;9.184;2022-12-18T11:38:23;32.95;;;13.02;;
1296;SDS011;641;48.492;9.184;2022-12-18T11:41:02;33.05;;;16.30;;
1296;SDS011;641;48.492;9.184;2022-12-18T11:43:38;12.80;;;5.03;;
1296;SDS011;641;48.492;9.184;2022-12-18T11:46:11;43.80;;;21.83;;
1296;SDS011;641;48.492;9.184;2022-12-18T11:48:43;32.65;;;14.50;;
1296;SDS011;641;48.492;9.184;2022-12-18T11:51:23;15.45;;;6.78;;
1296;SDS011;641;48.492;9.184;2022-12-18T11:54:09;42.33;;;19.05;;
1296;SDS011;641;48.492;9.184;2022-12-18T11:56:50;34.97;;;15.85;;
1296;SDS011;641;48.492;9.184;2022-12-18T11:59:36;46.22;;;20.80;;
1296;SDS011;641;48.492;9.184;2022-12-18T12:05:06;50.72;;;22.45;;
1296;SDS011;641;48.492;9.184;2022-12-18T12:18:44;53.30;;;23.67;;
1296;SDS011;641;48.492;9.184;2022-12-18T12:24:25;37.72;;;18.08;;
1296;SDS011;641;48.492;9.184;2022-12-18T12:27:20;48.83;;;21.77;;
1296;SDS011;641;48.492;9.184;2022-12-18T12:30:07;53.88;;;27.83;;
1296;SDS011;641;48.492;9.184;2022-12-18T12:38:16;44.17;;;17.10;;
1296;SDS011;641;48.492;9.184;2022-12-18T12:40:57;53.90;;;25.38;;
1296;SDS011;641;48.492;9.184;2022-12-18T12:46:03;40.45;;;20.77;;
1296;SDS011;641;48.492;9.184;2022-12-18T12:48:52;27.30;;;15.52;;
1296;SDS011;641;48.492;9.184;2022-12-18T12:51:30;48.83;;;22.45;;
1296;SDS011;641;48.492;9.184;2022-12-18T12:54:02;41.53;;;22.52;;
1296;SDS011;641;48.492;9.184;2022-12-18T12:56:45;49.72;;;20.23;;
1296;SDS011;641;48.492;9.184;2022-12-18T13:02:05;44.97;;;23.25;;
1296;SDS011;641;48.492;9.184;2022-12-18T13:04:51;49.55;;;22.52;;
1296;SDS011;641;48.492;9.184;2022-12-18T13:07:36;55.90;;;27.42;;
1296;SDS011;641;48.492;9.184;2022-12-18T13:10:22;56.38;;;25.52;;
1296;SDS011;641;48.492;9.184;2022-12-18T13:16:04;51.20;;;23.55;;
1296;SDS011;641;48.492;9.184;2022-12-18T13:18:31;52.15;;;26.15;;
1296;SDS011;641;48.492;9.184;2022-12-18T13:26:34;62.70;;;27.00;;
1296;SDS011;641;48.492;9.184;2022-12-18T13:31:15;60.40;;;29.48;;
1296;SDS011;641;48.492;9.184;2022-12-18T13:34:25;48.67;;;24.52;;
1296;SDS011;641;48.492;9.184;2022-12-18T13:36:52;50.15;;;23.80;;
1296;SDS011;641;48.492;9.184;2022-12-18T13:41:53;55.33;;;25.00;;
1296;SDS011;641;48.492;9.184;2022-12-18T13:44:59;46.05;;;21.92;;
1296;SDS011;641;48.492;9.184;2022-12-18T13:47:31;48.70;;;24.53;;
1296;SDS011;641;48.492;9.184;2022-12-18T13:49:59;43.13;;;21.80;;
1296;SDS011;641;48.492;9.184;2022-12-18T13:52:26;50.38;;;23.90;;
1296;SDS011;641;48.492;9.184;2022-12-18T13:54:55;60.38;;;32.13;;
1296;SDS011;641;48.492;9.184;2022-12-18T13:57:29;51.13;;;25.98;;
1296;SDS011;641;48.492;9.184;2022-12-18T13:59:57;67.40;;;30.67;;
1296;SDS011;641;48.492;9.184;2022-12-18T14:02:25;54.90;;;25.77;;
1296;SDS011;641;48.492;9.184;2022-12-18T14:04:52;51.72;;;23.23;;
1296;SDS011;641;48.492;9.184;2022-12-18T14:07:28;53.58;;;26.13;;
1296;SDS011;641;48.492;9.184;2022-12-18T14:09:55;52.72;;;24.23;;
1296;SDS011;641;48.492;9.184;2022-12-18T14:12:25;40.20;;;19.95;;
1296;SDS011;641;48.492;9.184;2022-12-18T14:15:32;46.85;;;24.10;;
1296;SDS011;641;48.492;9.184;2022-12-18T14:20:43;53.00;;;25.00;;
1296;SDS011;641;48.492;9.184;2022-12-18T14:25:56;46.15;;;18.65;;
1296;SDS011;641;48.492;9.184;2022-12-18T14:28:22;53.00;;;22.03;;
1296;SDS011;641;48.492;9.184;2022-12-18T14:30:50;46.80;;;21.63;;
1296;SDS011;641;48.492;9.184;2022-12-18T14:33:17;47.27;;;21.97;;
1296;SDS011;641;48.492;9.184;2022-12-18T14:38:38;45.20;;;20.48;;
1296;SDS011;641;48.492;9.184;2022-12-18T14:41:11;52.85;;;21.90;;
1296;SDS011;641;48.492;9.184;2022-12-18T14:43:39;50.35;;;20.63;;
1296;SDS011;641;48.492;9.184;2022-12-18T14:48:57;44.13;;;15.75;;
1296;SDS011;641;48.492;9.184;2022-12-18T14:51:25;53.22;;;17.95;;
1296;SDS011;641;48.492;9.184;2022-12-18T14:56:20;34.33;;;14.18;;
1296;SDS011;641;48.492;9.184;2022-12-18T14:58:55;33.15;;;12.63;;
1296;SDS011;641;48.492;9.184;2022-12-18T15:03:53;33.65;;;13.40;;
1296;SDS011;641;48.492;9.184;2022-12-18T15:06:30;37.30;;;15.65;;
1296;SDS011;641;48.492;9.184;2022-12-18T15:09:02;42.90;;;14.07;;
1296;SDS011;641;48.492;9.184;2022-12-18T15:14:21;31.13;;;11.75;;
1296;SDS011;641;48.492;9.184;2022-12-18T15:16:51;38.38;;;14.88;;
1296;SDS011;641;48.492;9.184;2022-12-18T15:19:20;33.92;;;12.15;;
1296;SDS011;641;48.492;9.184;2022-12-18T15:21:50;31.45;;;12.40;;
1296;SDS011;641;48.492;9.184;2022-12-18T15:24:20;40.20;;;16.90;;
1296;SDS011;641;48.492;9.184;2022-12-18T15:26:49;39.35;;;15.18;;
1296;SDS011;641;48.492;9.184;2022-12-18T15:29:17;39.03;;;14.10;;
1296;SDS011;641;48.492;9.184;2022-12-18T15:31:57;37.95;;;15.43;;
1296;SDS011;641;48.492;9.184;2022-12-18T15:34:24;37.03;;;14.85;;
1296;SDS011;641;48.492;9.184;2022-12-18T15:36:51;38.33;;;15.32;;
1296;SDS011;641;48.492;9.184;2022-12-18T15:39:16;36.40;;;13.07;;
1296;SDS011;641;48.492;9.184;2022-12-18T15:41:42;43.00;;;17.07;;
1296;SDS011;641;48.492;9.184;2022-12-18T15:44:28;41.42;;;15.25;;
1296;SDS011;641;48.492;9.184;2022-12-18T15:46:55;35.03;;;14.90;;
1296;SDS011;641;48.492;9.184;2022-12-18T15:49:20;38.70;;;15.35;;
1296;SDS011;641;48.492;9.184;2022-12-18T15:51:47;36.20;;;15.63;;
1296;SDS011;641;48.492;9.184;2022-12-18T15:54:17;41.28;;;15.55;;
1296;SDS011;641;48.492;9.184;2022-12-18T15:57:02;43.83;;;15.93;;
1296;SDS011;641;48.492;9.184;2022-12-18T15:59:46;38.40;;;14.45;;
1296;SDS011;641;48.492;9.184;2022-12-18T16:02:14;33.77;;;14.27;;
1296;SDS011;641;48.492;9.184;2022-12-18T16:04:42;41.67;;;15.55;;
1296;SDS011;641;48.492;9.184;2022-12-18T16:07:08;40.87;;;15.40;;
1296;SDS011;641;48.492;9.184;2022-12-18T16:09:34;34.17;;;14.43;;
1296;SDS011;641;48.492;9.184;2022-12-18T16:12:00;44.38;;;13.60;;
1296;SDS011;641;48.492;9.184;2022-12-18T16:14:27;37.50;;;14.30;;
1296;SDS011;641;48.492;9.184;2022-12-18T16:16:55;38.20;;;15.20;;
1296;SDS011;641;48.492;9.184;2022-12-18T16:19:22;38.28;;;15.93;;
1296;SDS011;641;48.492;9.184;2022-12-18T16:21:49;41.67;;;16.25;;
1296;SDS011;641;48.492;9.184;2022-12-18T16:24:20;37.35;;;15.57;;
1296;SDS011;641;48.492;9.184;2022-12-18T16:26:48;36.13;;;15.07;;
1296;SDS011;641;48.492;9.184;2022-12-18T16:29:16;45.30;;;16.23;;
1296;SDS011;641;48.492;9.184;2022-12-18T16:31:42;44.40;;;17.90;;
1296;SDS011;641;48.492;9.184;2022-12-18T16:34:24;39.33;;;16.00;;
1296;SDS011;641;48.492;9.184;2022-12-18T16:36:53;40.90;;;15.70;;
1296;SDS011;641;48.492;9.184;2022-12-18T16:39:23;32.40;;;13.88;;
1296;SDS011;641;48.492;9.184;2022-12-18T16:41:49;39.13;;;14.93;;
1296;SDS011;641;48.492;9.184;2022-12-18T16:44:15;35.97;;;14.77;;
1296;SDS011;641;48.492;9.184;2022-12-18T16:46:41;37.92;;;16.13;;
1296;SDS011;641;48.492;9.184;2022-12-18T16:49:10;43.58;;;17.95;;
1296;SDS011;641;48.492;9.184;2022-12-18T16:51:36;39.40;;;17.42;;
1296;SDS011;641;48.492;9.184;2022-12-18T16:54:02;41.90;;;15.13;;
1296;SDS011;641;48.492;9.184;2022-12-18T16:56:28;44.47;;;18.80;;
1296;SDS011;641;48.492;9.184;2022-12-18T16:58:55;47.70;;;20.27;;
1296;SDS011;641;48.492;9.184;2022-12-18T17:01:23;43.47;;;18.38;;
1296;SDS011;641;48.492;9.184;2022-12-18T17:03:57;40.17;;;17.85;;
1296;SDS011;641;48.492;9.184;2022-12-18T17:06:27;41.22;;;17.98;;
1296;SDS011;641;48.492;9.184;2022-12-18T17:08:55;44.28;;;20.80;;
1296;SDS011;641;48.492;9.184;2022-12-18T17:11:22;37.05;;;17.60;;
1296;SDS011;641;48.492;9.184;2022-12-18T17:13:52;45.00;;;16.58;;
1296;SDS011;641;48.492;9.184;2022-12-18T17:16:18;40.67;;;15.27;;